sensor_id;sensor_type;location;lat;lon;timestamp;P1;durP1;ratioP1;P2;durP2;ratioP2
11245;SDS011;59870;50.106;8.580;2023-07-20T00:00:18;3.00;;;2.80;;
11245;SDS011;59870;50.106;8.580;2023-07-20T00:02:45;3.07;;;2.60;;
11245;SDS011;59870;50.106;8.580;2023-07-20T00:05:17;3.27;;;3.07;;
11245;SDS011;59870;50.106;8.580;2023-07-20T00:07:51;3.43;;;3.00;;
11245;SDS011;59870;50.106;8.580;2023-07-20T00:10:19;3.63;;;3.30;;
11245;SDS011;59870;50.106;8.580;2023-07-20T00:12:46;3.07;;;2.77;;
11245;SDS011;59870;50.106;8.580;2023-07-20T00:15:14;3.23;;;3.00;;
11245;SDS011;59870;50.106;8.580;2023-07-20T00:17:42;2.93;;;2.77;;
11245;SDS011;59870;50.106;8.580;2023-07-20T00:20:10;11.63;;;3.00;;
11245;SDS011;59870;50.106;8.580;2023-07-20T00:22:38;3.30;;;3.03;;
11245;SDS011;59870;50.106;8.580;2023-07-20T00:25:05;3.20;;;2.93;;
11245;SDS011;59870;50.106;8.580;2023-07-20T00:27:33;4.27;;;3.20;;
11245;SDS011;59870;50.106;8.580;2023-07-20T00:30:00;3.57;;;3.27;;
11245;SDS011;59870;50.106;8.580;2023-07-20T00:32:28;4.63;;;3.30;;
11245;SDS011;59870;50.106;8.580;2023-07-20T00:34:56;2.93;;;2.80;;
11245;SDS011;59870;50.106;8.580;2023-07-20T00:37:24;3.60;;;3.23;;
11245;SDS011;59870;50.106;8.580;2023-07-20T00:39:51;3.23;;;2.90;;
11245;SDS011;59870;50.106;8.580;2023-07-20T00:42:20;3.93;;;3.13;;
11245;SDS011;59870;50.106;8.580;2023-07-20T00:44:48;3.73;;;3.03;;
11245;SDS011;59870;50.106;8.580;2023-07-20T00:47:16;2.93;;;2.73;;
11245;SDS011;59870;50.106;8.580;2023-07-20T00:49:43;4.97;;;3.43;;
11245;SDS011;59870;50.106;8.580;2023-07-20T00:52:11;3.53;;;3.20;;
11245;SDS011;59870;50.106;8.580;2023-07-20T00:54:42;3.20;;;2.83;;
11245;SDS011;59870;50.106;8.580;2023-07-20T00:57:10;3.20;;;3.00;;
11245;SDS011;59870;50.106;8.580;2023-07-20T00:59:44;3.07;;;2.77;;
11245;SDS011;59870;50.106;8.580;2023-07-20T01:02:12;3.50;;;3.07;;
11245;SDS011;59870;50.106;8.580;2023-07-20T01:04:40;3.47;;;3.27;;
11245;SDS011;59870;50.106;8.580;2023-07-20T01:07:11;3.60;;;3.10;;
11245;SDS011;59870;50.106;8.580;2023-07-20T01:09:48;4.83;;;3.30;;
11245;SDS011;59870;50.106;8.580;2023-07-20T01:12:35;4.17;;;2.93;;
11245;SDS011;59870;50.106;8.580;2023-07-20T01:15:08;3.50;;;3.20;;
11245;SDS011;59870;50.106;8.580;2023-07-20T01:17:36;3.20;;;3.00;;
11245;SDS011;59870;50.106;8.580;2023-07-20T01:20:06;3.40;;;3.10;;
11245;SDS011;59870;50.106;8.580;2023-07-20T01:33:48;3.80;;;3.40;;
11245;SDS011;59870;50.106;8.580;2023-07-20T01:36:18;3.60;;;2.93;;
11245;SDS011;59870;50.106;8.580;2023-07-20T01:38:48;3.53;;;3.10;;
11245;SDS011;59870;50.106;8.580;2023-07-20T01:41:16;3.53;;;3.23;;
11245;SDS011;59870;50.106;8.580;2023-07-20T01:43:45;4.13;;;3.37;;
11245;SDS011;59870;50.106;8.580;2023-07-20T01:46:13;3.83;;;3.07;;
11245;SDS011;59870;50.106;8.580;2023-07-20T01:48:40;4.13;;;3.73;;
11245;SDS011;59870;50.106;8.580;2023-07-20T01:51:08;3.77;;;2.80;;
11245;SDS011;59870;50.106;8.580;2023-07-20T01:53:36;3.23;;;3.03;;
11245;SDS011;59870;50.106;8.580;2023-07-20T01:56:03;2.97;;;2.77;;
11245;SDS011;59870;50.106;8.580;2023-07-20T01:58:31;3.13;;;2.83;;
11245;SDS011;59870;50.106;8.580;2023-07-20T02:00:58;3.67;;;3.30;;
11245;SDS011;59870;50.106;8.580;2023-07-20T02:03:26;3.77;;;3.23;;
11245;SDS011;59870;50.106;8.580;2023-07-20T02:05:53;4.97;;;3.47;;
11245;SDS011;59870;50.106;8.580;2023-07-20T02:08:21;3.63;;;3.33;;
11245;SDS011;59870;50.106;8.580;2023-07-20T02:10:48;3.80;;;3.43;;
11245;SDS011;59870;50.106;8.580;2023-07-20T02:13:16;3.60;;;3.30;;
11245;SDS011;59870;50.106;8.580;2023-07-20T02:15:43;5.53;;;3.53;;
11245;SDS011;59870;50.106;8.580;2023-07-20T02:18:11;4.60;;;3.40;;
11245;SDS011;59870;50.106;8.580;2023-07-20T02:20:40;4.37;;;3.67;;
11245;SDS011;59870;50.106;8.580;2023-07-20T02:23:08;3.57;;;3.23;;
11245;SDS011;59870;50.106;8.580;2023-07-20T02:25:36;7.53;;;3.67;;
11245;SDS011;59870;50.106;8.580;2023-07-20T02:28:04;4.53;;;3.40;;
11245;SDS011;59870;50.106;8.580;2023-07-20T02:30:34;3.40;;;3.20;;
11245;SDS011;59870;50.106;8.580;2023-07-20T02:33:04;3.37;;;3.07;;
11245;SDS011;59870;50.106;8.580;2023-07-20T02:35:33;4.47;;;3.70;;
11245;SDS011;59870;50.106;8.580;2023-07-20T02:38:00;7.23;;;3.47;;
11245;SDS011;59870;50.106;8.580;2023-07-20T02:40:28;3.50;;;3.30;;
11245;SDS011;59870;50.106;8.580;2023-07-20T02:42:56;3.90;;;3.33;;
11245;SDS011;59870;50.106;8.580;2023-07-20T02:45:23;3.73;;;3.43;;
11245;SDS011;59870;50.106;8.580;2023-07-20T02:47:51;6.50;;;3.97;;
11245;SDS011;59870;50.106;8.580;2023-07-20T02:50:19;3.80;;;3.50;;
11245;SDS011;59870;50.106;8.580;2023-07-20T02:52:46;3.30;;;3.07;;
11245;SDS011;59870;50.106;8.580;2023-07-20T02:55:13;3.40;;;3.10;;
11245;SDS011;59870;50.106;8.580;2023-07-20T02:57:41;3.70;;;3.27;;
11245;SDS011;59870;50.106;8.580;2023-07-20T03:00:09;4.17;;;3.73;;
11245;SDS011;59870;50.106;8.580;2023-07-20T03:02:38;3.47;;;3.17;;
11245;SDS011;59870;50.106;8.580;2023-07-20T03:05:06;4.27;;;3.97;;
11245;SDS011;59870;50.106;8.580;2023-07-20T03:07:34;3.77;;;3.47;;
11245;SDS011;59870;50.106;8.580;2023-07-20T03:10:01;3.47;;;3.20;;
11245;SDS011;59870;50.106;8.580;2023-07-20T03:12:30;3.97;;;3.67;;
11245;SDS011;59870;50.106;8.580;2023-07-20T03:14:58;6.80;;;3.87;;
11245;SDS011;59870;50.106;8.580;2023-07-20T03:17:25;3.83;;;3.43;;
11245;SDS011;59870;50.106;8.580;2023-07-20T03:19:53;4.30;;;3.53;;
11245;SDS011;59870;50.106;8.580;2023-07-20T03:22:22;4.13;;;3.73;;
11245;SDS011;59870;50.106;8.580;2023-07-20T03:24:51;4.07;;;3.60;;
11245;SDS011;59870;50.106;8.580;2023-07-20T03:27:20;3.40;;;3.17;;
11245;SDS011;59870;50.106;8.580;2023-07-20T03:29:48;3.97;;;3.57;;
11245;SDS011;59870;50.106;8.580;2023-07-20T03:32:16;3.50;;;3.20;;
11245;SDS011;59870;50.106;8.580;2023-07-20T03:34:43;3.60;;;3.30;;
11245;SDS011;59870;50.106;8.580;2023-07-20T03:37:13;4.20;;;3.20;;
11245;SDS011;59870;50.106;8.580;2023-07-20T03:39:41;4.70;;;3.27;;
11245;SDS011;59870;50.106;8.580;2023-07-20T03:42:08;3.73;;;3.37;;
11245;SDS011;59870;50.106;8.580;2023-07-20T03:44:36;4.07;;;3.77;;
11245;SDS011;59870;50.106;8.580;2023-07-20T03:47:04;3.70;;;3.40;;
11245;SDS011;59870;50.106;8.580;2023-07-20T03:49:31;3.37;;;3.17;;
11245;SDS011;59870;50.106;8.580;2023-07-20T03:52:00;3.77;;;3.47;;
11245;SDS011;59870;50.106;8.580;2023-07-20T03:54:29;3.53;;;3.33;;
11245;SDS011;59870;50.106;8.580;2023-07-20T03:56:57;3.47;;;3.27;;
11245;SDS011;59870;50.106;8.580;2023-07-20T03:59:25;3.20;;;3.00;;
11245;SDS011;59870;50.106;8.580;2023-07-20T04:01:52;4.10;;;3.50;;
11245;SDS011;59870;50.106;8.580;2023-07-20T04:04:19;3.30;;;3.00;;
11245;SDS011;59870;50.106;8.580;2023-07-20T04:06:47;3.57;;;3.27;;
11245;SDS011;59870;50.106;8.580;2023-07-20T04:09:14;4.17;;;3.77;;
11245;SDS011;59870;50.106;8.580;2023-07-20T04:11:42;5.13;;;3.63;;
11245;SDS011;59870;50.106;8.580;2023-07-20T04:14:09;3.30;;;3.00;;
11245;SDS011;59870;50.106;8.580;2023-07-20T04:16:36;3.83;;;3.30;;
11245;SDS011;59870;50.106;8.580;2023-07-20T04:19:04;4.40;;;4.00;;
11245;SDS011;59870;50.106;8.580;2023-07-20T04:21:31;4.40;;;3.00;;
11245;SDS011;59870;50.106;8.580;2023-07-20T04:23:59;6.20;;;3.47;;
11245;SDS011;59870;50.106;8.580;2023-07-20T04:26:26;7.00;;;3.50;;
11245;SDS011;59870;50.106;8.580;2023-07-20T04:28:54;5.10;;;3.23;;
11245;SDS011;59870;50.106;8.580;2023-07-20T04:31:32;9.80;;;4.00;;
11245;SDS011;59870;50.106;8.580;2023-07-20T04:34:02;9.60;;;3.80;;
11245;SDS011;59870;50.106;8.580;2023-07-20T04:36:35;4.30;;;3.90;;
11245;SDS011;59870;50.106;8.580;2023-07-20T04:39:03;7.50;;;4.00;;
11245;SDS011;59870;50.106;8.580;2023-07-20T04:41:43;4.40;;;3.90;;
11245;SDS011;59870;50.106;8.580;2023-07-20T04:44:12;4.00;;;3.30;;
11245;SDS011;59870;50.106;8.580;2023-07-20T04:46:40;4.13;;;3.60;;
11245;SDS011;59870;50.106;8.580;2023-07-20T04:49:12;4.77;;;3.50;;
11245;SDS011;59870;50.106;8.580;2023-07-20T04:51:42;4.30;;;3.90;;
11245;SDS011;59870;50.106;8.580;2023-07-20T04:54:10;3.60;;;3.30;;
11245;SDS011;59870;50.106;8.580;2023-07-20T04:56:38;4.60;;;3.50;;
11245;SDS011;59870;50.106;8.580;2023-07-20T04:59:09;4.27;;;3.60;;
11245;SDS011;59870;50.106;8.580;2023-07-20T05:01:36;3.60;;;3.30;;
11245;SDS011;59870;50.106;8.580;2023-07-20T05:04:04;3.97;;;3.67;;
11245;SDS011;59870;50.106;8.580;2023-07-20T05:06:35;7.67;;;3.87;;
11245;SDS011;59870;50.106;8.580;2023-07-20T05:09:03;7.13;;;3.87;;
11245;SDS011;59870;50.106;8.580;2023-07-20T05:11:30;3.73;;;3.40;;
11245;SDS011;59870;50.106;8.580;2023-07-20T05:13:59;4.43;;;3.50;;
11245;SDS011;59870;50.106;8.580;2023-07-20T05:16:28;7.03;;;3.70;;
11245;SDS011;59870;50.106;8.580;2023-07-20T05:19:01;3.93;;;3.63;;
11245;SDS011;59870;50.106;8.580;2023-07-20T05:21:29;4.37;;;3.93;;
11245;SDS011;59870;50.106;8.580;2023-07-20T05:23:56;5.03;;;3.77;;
11245;SDS011;59870;50.106;8.580;2023-07-20T05:26:23;4.27;;;3.87;;
11245;SDS011;59870;50.106;8.580;2023-07-20T05:28:51;3.30;;;3.10;;
11245;SDS011;59870;50.106;8.580;2023-07-20T05:31:19;5.33;;;3.83;;
11245;SDS011;59870;50.106;8.580;2023-07-20T05:33:46;5.37;;;3.80;;
11245;SDS011;59870;50.106;8.580;2023-07-20T05:36:13;3.77;;;3.43;;
11245;SDS011;59870;50.106;8.580;2023-07-20T05:38:41;6.70;;;3.80;;
11245;SDS011;59870;50.106;8.580;2023-07-20T05:41:08;5.33;;;3.93;;
11245;SDS011;59870;50.106;8.580;2023-07-20T05:43:37;3.73;;;3.43;;
11245;SDS011;59870;50.106;8.580;2023-07-20T05:46:04;9.13;;;4.33;;
11245;SDS011;59870;50.106;8.580;2023-07-20T05:48:32;4.37;;;3.83;;
11245;SDS011;59870;50.106;8.580;2023-07-20T05:50:59;6.60;;;3.87;;
11245;SDS011;59870;50.106;8.580;2023-07-20T05:53:27;4.90;;;4.50;;
11245;SDS011;59870;50.106;8.580;2023-07-20T05:55:54;6.07;;;4.07;;
11245;SDS011;59870;50.106;8.580;2023-07-20T05:58:22;4.13;;;3.73;;
11245;SDS011;59870;50.106;8.580;2023-07-20T06:00:50;9.33;;;4.17;;
11245;SDS011;59870;50.106;8.580;2023-07-20T06:03:17;4.30;;;3.33;;
11245;SDS011;59870;50.106;8.580;2023-07-20T06:05:45;4.67;;;3.20;;
11245;SDS011;59870;50.106;8.580;2023-07-20T06:08:14;6.10;;;4.00;;
11245;SDS011;59870;50.106;8.580;2023-07-20T06:10:42;4.20;;;3.90;;
11245;SDS011;59870;50.106;8.580;2023-07-20T06:13:11;6.10;;;3.53;;
11245;SDS011;59870;50.106;8.580;2023-07-20T06:15:40;4.17;;;3.13;;
11245;SDS011;59870;50.106;8.580;2023-07-20T06:18:09;3.93;;;3.53;;
11245;SDS011;59870;50.106;8.580;2023-07-20T06:20:36;3.23;;;2.93;;
11245;SDS011;59870;50.106;8.580;2023-07-20T06:23:04;3.20;;;3.00;;
11245;SDS011;59870;50.106;8.580;2023-07-20T06:25:31;6.43;;;3.30;;
11245;SDS011;59870;50.106;8.580;2023-07-20T06:27:59;3.40;;;3.13;;
11245;SDS011;59870;50.106;8.580;2023-07-20T06:30:27;3.20;;;3.00;;
11245;SDS011;59870;50.106;8.580;2023-07-20T06:32:54;3.13;;;2.93;;
11245;SDS011;59870;50.106;8.580;2023-07-20T06:35:22;3.40;;;3.10;;
11245;SDS011;59870;50.106;8.580;2023-07-20T06:37:50;3.33;;;3.07;;
11245;SDS011;59870;50.106;8.580;2023-07-20T06:40:17;4.43;;;3.40;;
11245;SDS011;59870;50.106;8.580;2023-07-20T06:42:48;3.43;;;3.03;;
11245;SDS011;59870;50.106;8.580;2023-07-20T06:45:18;3.73;;;3.43;;
11245;SDS011;59870;50.106;8.580;2023-07-20T06:47:46;8.20;;;3.60;;
11245;SDS011;59870;50.106;8.580;2023-07-20T06:50:13;3.50;;;3.30;;
11245;SDS011;59870;50.106;8.580;2023-07-20T06:52:44;4.37;;;3.50;;
11245;SDS011;59870;50.106;8.580;2023-07-20T06:55:14;3.53;;;3.17;;
11245;SDS011;59870;50.106;8.580;2023-07-20T06:57:48;3.07;;;2.80;;
11245;SDS011;59870;50.106;8.580;2023-07-20T07:00:16;3.53;;;3.23;;
11245;SDS011;59870;50.106;8.580;2023-07-20T07:02:43;3.53;;;3.23;;
11245;SDS011;59870;50.106;8.580;2023-07-20T07:05:13;3.47;;;3.17;;
11245;SDS011;59870;50.106;8.580;2023-07-20T07:07:47;4.43;;;3.20;;
11245;SDS011;59870;50.106;8.580;2023-07-20T07:10:14;7.30;;;3.37;;
11245;SDS011;59870;50.106;8.580;2023-07-20T07:12:42;3.87;;;3.57;;
11245;SDS011;59870;50.106;8.580;2023-07-20T07:15:10;3.73;;;3.43;;
11245;SDS011;59870;50.106;8.580;2023-07-20T07:17:40;4.20;;;3.87;;
11245;SDS011;59870;50.106;8.580;2023-07-20T07:20:09;3.57;;;3.20;;
11245;SDS011;59870;50.106;8.580;2023-07-20T07:22:46;3.27;;;3.07;;
11245;SDS011;59870;50.106;8.580;2023-07-20T07:25:14;7.53;;;3.77;;
11245;SDS011;59870;50.106;8.580;2023-07-20T07:27:49;3.10;;;2.90;;
11245;SDS011;59870;50.106;8.580;2023-07-20T07:30:16;3.17;;;2.73;;
11245;SDS011;59870;50.106;8.580;2023-07-20T07:32:44;5.07;;;2.80;;
11245;SDS011;59870;50.106;8.580;2023-07-20T07:35:11;3.50;;;3.20;;
11245;SDS011;59870;50.106;8.580;2023-07-20T07:37:39;3.00;;;2.80;;
11245;SDS011;59870;50.106;8.580;2023-07-20T07:40:26;3.37;;;3.07;;
11245;SDS011;59870;50.106;8.580;2023-07-20T07:42:54;3.60;;;3.00;;
11245;SDS011;59870;50.106;8.580;2023-07-20T07:45:21;3.37;;;3.07;;
11245;SDS011;59870;50.106;8.580;2023-07-20T07:47:48;2.83;;;2.63;;
11245;SDS011;59870;50.106;8.580;2023-07-20T07:50:16;3.60;;;3.30;;
11245;SDS011;59870;50.106;8.580;2023-07-20T07:52:43;3.30;;;3.10;;
11245;SDS011;59870;50.106;8.580;2023-07-20T07:55:11;3.83;;;3.00;;
11245;SDS011;59870;50.106;8.580;2023-07-20T07:57:38;3.20;;;3.00;;
11245;SDS011;59870;50.106;8.580;2023-07-20T08:00:06;17.90;;;4.60;;
11245;SDS011;59870;50.106;8.580;2023-07-20T08:02:38;3.10;;;2.90;;
11245;SDS011;59870;50.106;8.580;2023-07-20T08:05:05;3.10;;;2.80;;
11245;SDS011;59870;50.106;8.580;2023-07-20T08:07:33;3.75;;;2.67;;
11245;SDS011;59870;50.106;8.580;2023-07-20T08:10:01;3.38;;;3.08;;
11245;SDS011;59870;50.106;8.580;2023-07-20T08:12:29;3.22;;;2.67;;
11245;SDS011;59870;50.106;8.580;2023-07-20T08:14:56;3.30;;;3.10;;
11245;SDS011;59870;50.106;8.580;2023-07-20T08:17:23;3.93;;;2.93;;
11245;SDS011;59870;50.106;8.580;2023-07-20T08:19:51;3.67;;;3.00;;
11245;SDS011;59870;50.106;8.580;2023-07-20T08:22:19;3.67;;;3.37;;
11245;SDS011;59870;50.106;8.580;2023-07-20T08:24:46;4.95;;;2.83;;
11245;SDS011;59870;50.106;8.580;2023-07-20T08:27:14;2.80;;;2.50;;
11245;SDS011;59870;50.106;8.580;2023-07-20T08:29:42;3.33;;;3.03;;
11245;SDS011;59870;50.106;8.580;2023-07-20T08:32:09;3.10;;;2.90;;
11245;SDS011;59870;50.106;8.580;2023-07-20T08:34:37;3.13;;;2.93;;
11245;SDS011;59870;50.106;8.580;2023-07-20T08:37:05;4.20;;;2.90;;
11245;SDS011;59870;50.106;8.580;2023-07-20T08:39:33;5.53;;;2.95;;
11245;SDS011;59870;50.106;8.580;2023-07-20T08:42:02;2.67;;;2.47;;
11245;SDS011;59870;50.106;8.580;2023-07-20T08:44:33;2.72;;;2.53;;
11245;SDS011;59870;50.106;8.580;2023-07-20T08:47:01;3.25;;;2.95;;
11245;SDS011;59870;50.106;8.580;2023-07-20T08:49:31;3.05;;;2.80;;
11245;SDS011;59870;50.106;8.580;2023-07-20T08:52:01;3.22;;;3.00;;
11245;SDS011;59870;50.106;8.580;2023-07-20T08:54:31;2.90;;;2.70;;
11245;SDS011;59870;50.106;8.580;2023-07-20T08:57:01;2.90;;;2.70;;
11245;SDS011;59870;50.106;8.580;2023-07-20T08:59:31;2.80;;;2.60;;
11245;SDS011;59870;50.106;8.580;2023-07-20T09:01:59;2.60;;;2.40;;
11245;SDS011;59870;50.106;8.580;2023-07-20T09:04:27;3.20;;;3.00;;
11245;SDS011;59870;50.106;8.580;2023-07-20T09:06:55;5.22;;;2.90;;
11245;SDS011;59870;50.106;8.580;2023-07-20T09:09:24;3.00;;;2.80;;
11245;SDS011;59870;50.106;8.580;2023-07-20T09:11:53;2.97;;;2.77;;
11245;SDS011;59870;50.106;8.580;2023-07-20T09:14:21;5.00;;;2.78;;
11245;SDS011;59870;50.106;8.580;2023-07-20T09:16:53;2.45;;;2.25;;
11245;SDS011;59870;50.106;8.580;2023-07-20T09:19:21;2.80;;;2.65;;
11245;SDS011;59870;50.106;8.580;2023-07-20T09:21:51;2.50;;;2.35;;
11245;SDS011;59870;50.106;8.580;2023-07-20T09:24:19;3.77;;;2.60;;
11245;SDS011;59870;50.106;8.580;2023-07-20T09:26:47;5.07;;;2.90;;
11245;SDS011;59870;50.106;8.580;2023-07-20T09:29:17;2.65;;;2.50;;
11245;SDS011;59870;50.106;8.580;2023-07-20T09:32:02;2.77;;;2.50;;
11245;SDS011;59870;50.106;8.580;2023-07-20T09:34:31;2.47;;;2.37;;
11245;SDS011;59870;50.106;8.580;2023-07-20T09:37:02;2.70;;;2.50;;
11245;SDS011;59870;50.106;8.580;2023-07-20T09:39:30;2.77;;;2.57;;
11245;SDS011;59870;50.106;8.580;2023-07-20T09:42:00;2.90;;;2.73;;
11245;SDS011;59870;50.106;8.580;2023-07-20T09:44:32;2.73;;;2.53;;
11245;SDS011;59870;50.106;8.580;2023-07-20T09:47:03;2.87;;;2.67;;
11245;SDS011;59870;50.106;8.580;2023-07-20T09:49:32;6.97;;;2.53;;
11245;SDS011;59870;50.106;8.580;2023-07-20T09:52:19;3.37;;;3.10;;
11245;SDS011;59870;50.106;8.580;2023-07-20T09:54:50;3.27;;;2.63;;
11245;SDS011;59870;50.106;8.580;2023-07-20T09:57:18;3.60;;;2.77;;
11245;SDS011;59870;50.106;8.580;2023-07-20T09:59:47;2.67;;;2.47;;
11245;SDS011;59870;50.106;8.580;2023-07-20T10:02:25;2.83;;;2.63;;
11245;SDS011;59870;50.106;8.580;2023-07-20T10:05:01;3.27;;;2.80;;
11245;SDS011;59870;50.106;8.580;2023-07-20T10:07:31;3.43;;;2.63;;
11245;SDS011;59870;50.106;8.580;2023-07-20T10:10:04;3.00;;;2.80;;
11245;SDS011;59870;50.106;8.580;2023-07-20T10:12:33;2.73;;;2.50;;
11245;SDS011;59870;50.106;8.580;2023-07-20T10:15:08;3.90;;;2.97;;
11245;SDS011;59870;50.106;8.580;2023-07-20T10:17:49;3.10;;;2.90;;
11245;SDS011;59870;50.106;8.580;2023-07-20T10:20:39;3.90;;;2.50;;
11245;SDS011;59870;50.106;8.580;2023-07-20T10:23:28;2.60;;;2.40;;
11245;SDS011;59870;50.106;8.580;2023-07-20T10:25:59;2.93;;;2.73;;
11245;SDS011;59870;50.106;8.580;2023-07-20T10:28:28;2.50;;;2.30;;
11245;SDS011;59870;50.106;8.580;2023-07-20T10:30:55;3.10;;;2.90;;
11245;SDS011;59870;50.106;8.580;2023-07-20T10:33:23;2.83;;;2.63;;
11245;SDS011;59870;50.106;8.580;2023-07-20T10:35:52;2.90;;;2.70;;
11245;SDS011;59870;50.106;8.580;2023-07-20T10:38:44;2.63;;;2.43;;
11245;SDS011;59870;50.106;8.580;2023-07-20T10:41:34;4.60;;;2.90;;
11245;SDS011;59870;50.106;8.580;2023-07-20T10:44:03;2.60;;;2.40;;
11245;SDS011;59870;50.106;8.580;2023-07-20T10:49:08;3.20;;;3.00;;
11245;SDS011;59870;50.106;8.580;2023-07-20T10:51:43;2.40;;;2.30;;
11245;SDS011;59870;50.106;8.580;2023-07-20T10:56:45;2.83;;;2.63;;
11245;SDS011;59870;50.106;8.580;2023-07-20T10:59:18;3.07;;;2.97;;
11245;SDS011;59870;50.106;8.580;2023-07-20T11:01:55;3.03;;;2.67;;
11245;SDS011;59870;50.106;8.580;2023-07-20T11:04:39;2.83;;;2.60;;
11245;SDS011;59870;50.106;8.580;2023-07-20T11:07:08;4.73;;;2.93;;
11245;SDS011;59870;50.106;8.580;2023-07-20T11:09:36;4.60;;;2.90;;
11245;SDS011;59870;50.106;8.580;2023-07-20T11:12:12;5.20;;;2.57;;
11245;SDS011;59870;50.106;8.580;2023-07-20T11:14:42;4.87;;;2.67;;
11245;SDS011;59870;50.106;8.580;2023-07-20T11:17:11;2.83;;;2.67;;
11245;SDS011;59870;50.106;8.580;2023-07-20T11:19:44;2.53;;;2.43;;
11245;SDS011;59870;50.106;8.580;2023-07-20T11:22:18;3.23;;;2.77;;
11245;SDS011;59870;50.106;8.580;2023-07-20T11:24:47;2.60;;;2.40;;
11245;SDS011;59870;50.106;8.580;2023-07-20T11:27:16;2.30;;;2.20;;
11245;SDS011;59870;50.106;8.580;2023-07-20T11:29:49;3.00;;;2.80;;
11245;SDS011;59870;50.106;8.580;2023-07-20T11:32:20;2.72;;;2.53;;
11245;SDS011;59870;50.106;8.580;2023-07-20T11:34:49;2.70;;;2.50;;
11245;SDS011;59870;50.106;8.580;2023-07-20T11:37:17;2.43;;;2.23;;
11245;SDS011;59870;50.106;8.580;2023-07-20T11:39:45;2.70;;;2.50;;
11245;SDS011;59870;50.106;8.580;2023-07-20T11:42:13;2.40;;;2.30;;
11245;SDS011;59870;50.106;8.580;2023-07-20T11:45:02;2.57;;;2.47;;
11245;SDS011;59870;50.106;8.580;2023-07-20T11:47:32;4.30;;;2.67;;
11245;SDS011;59870;50.106;8.580;2023-07-20T11:50:03;2.77;;;2.57;;
11245;SDS011;59870;50.106;8.580;2023-07-20T11:52:31;2.63;;;2.43;;
11245;SDS011;59870;50.106;8.580;2023-07-20T11:55:00;2.50;;;2.30;;
11245;SDS011;59870;50.106;8.580;2023-07-20T11:57:29;2.70;;;2.50;;
11245;SDS011;59870;50.106;8.580;2023-07-20T12:00:00;2.50;;;2.40;;
11245;SDS011;59870;50.106;8.580;2023-07-20T12:02:33;2.63;;;2.43;;
11245;SDS011;59870;50.106;8.580;2023-07-20T12:05:01;2.90;;;2.70;;
11245;SDS011;59870;50.106;8.580;2023-07-20T12:07:34;2.87;;;2.67;;
11245;SDS011;59870;50.106;8.580;2023-07-20T12:10:07;2.60;;;2.40;;
11245;SDS011;59870;50.106;8.580;2023-07-20T12:12:38;2.37;;;2.27;;
11245;SDS011;59870;50.106;8.580;2023-07-20T12:15:13;2.83;;;2.63;;
11245;SDS011;59870;50.106;8.580;2023-07-20T12:17:41;2.53;;;2.43;;
11245;SDS011;59870;50.106;8.580;2023-07-20T12:20:13;2.60;;;2.40;;
11245;SDS011;59870;50.106;8.580;2023-07-20T12:22:51;3.78;;;2.42;;
11245;SDS011;59870;50.106;8.580;2023-07-20T12:25:18;2.53;;;2.40;;
11245;SDS011;59870;50.106;8.580;2023-07-20T12:27:47;2.37;;;2.27;;
11245;SDS011;59870;50.106;8.580;2023-07-20T12:30:16;2.70;;;2.53;;
11245;SDS011;59870;50.106;8.580;2023-07-20T12:32:44;3.03;;;2.80;;
11245;SDS011;59870;50.106;8.580;2023-07-20T12:35:12;3.10;;;2.60;;
11245;SDS011;59870;50.106;8.580;2023-07-20T12:37:41;2.67;;;2.37;;
11245;SDS011;59870;50.106;8.580;2023-07-20T12:40:09;3.13;;;2.80;;
11245;SDS011;59870;50.106;8.580;2023-07-20T12:42:37;2.40;;;2.20;;
11245;SDS011;59870;50.106;8.580;2023-07-20T12:45:05;2.60;;;2.40;;
11245;SDS011;59870;50.106;8.580;2023-07-20T12:47:33;2.73;;;2.43;;
11245;SDS011;59870;50.106;8.580;2023-07-20T12:50:01;3.07;;;2.70;;
11245;SDS011;59870;50.106;8.580;2023-07-20T12:52:30;5.45;;;2.22;;
11245;SDS011;59870;50.106;8.580;2023-07-20T12:54:58;2.40;;;2.20;;
11245;SDS011;59870;50.106;8.580;2023-07-20T12:57:28;2.45;;;2.35;;
11245;SDS011;59870;50.106;8.580;2023-07-20T12:59:55;3.13;;;2.23;;
11245;SDS011;59870;50.106;8.580;2023-07-20T13:02:23;3.00;;;2.70;;
11245;SDS011;59870;50.106;8.580;2023-07-20T13:04:51;2.57;;;2.40;;
11245;SDS011;59870;50.106;8.580;2023-07-20T13:07:22;2.60;;;2.40;;
11245;SDS011;59870;50.106;8.580;2023-07-20T13:10:04;3.87;;;2.30;;
11245;SDS011;59870;50.106;8.580;2023-07-20T13:12:33;2.60;;;2.40;;
11245;SDS011;59870;50.106;8.580;2023-07-20T13:15:05;2.47;;;2.27;;
11245;SDS011;59870;50.106;8.580;2023-07-20T13:17:34;2.80;;;2.60;;
11245;SDS011;59870;50.106;8.580;2023-07-20T13:20:03;5.87;;;2.50;;
11245;SDS011;59870;50.106;8.580;2023-07-20T13:22:33;2.50;;;2.40;;
11245;SDS011;59870;50.106;8.580;2023-07-20T13:25:01;3.47;;;2.00;;
11245;SDS011;59870;50.106;8.580;2023-07-20T13:27:29;2.47;;;2.27;;
11245;SDS011;59870;50.106;8.580;2023-07-20T13:29:59;2.50;;;2.30;;
11245;SDS011;59870;50.106;8.580;2023-07-20T13:32:30;2.33;;;2.23;;
11245;SDS011;59870;50.106;8.580;2023-07-20T13:35:00;2.43;;;2.23;;
11245;SDS011;59870;50.106;8.580;2023-07-20T13:37:28;2.50;;;2.40;;
11245;SDS011;59870;50.106;8.580;2023-07-20T13:39:55;2.33;;;2.10;;
11245;SDS011;59870;50.106;8.580;2023-07-20T13:42:24;2.40;;;2.20;;
11245;SDS011;59870;50.106;8.580;2023-07-20T13:44:52;2.10;;;1.90;;
11245;SDS011;59870;50.106;8.580;2023-07-20T13:47:21;2.40;;;2.13;;
11245;SDS011;59870;50.106;8.580;2023-07-20T13:49:48;2.50;;;2.30;;
11245;SDS011;59870;50.106;8.580;2023-07-20T13:52:29;2.40;;;2.20;;
11245;SDS011;59870;50.106;8.580;2023-07-20T13:54:59;2.33;;;2.17;;
11245;SDS011;59870;50.106;8.580;2023-07-20T13:57:32;2.20;;;2.10;;
11245;SDS011;59870;50.106;8.580;2023-07-20T14:00:02;13.37;;;2.53;;
11245;SDS011;59870;50.106;8.580;2023-07-20T14:02:38;2.33;;;2.10;;
11245;SDS011;59870;50.106;8.580;2023-07-20T14:05:08;2.83;;;2.10;;
11245;SDS011;59870;50.106;8.580;2023-07-20T14:07:40;2.40;;;2.30;;
11245;SDS011;59870;50.106;8.580;2023-07-20T14:10:07;2.30;;;2.10;;
11245;SDS011;59870;50.106;8.580;2023-07-20T14:12:38;1.97;;;1.87;;
11245;SDS011;59870;50.106;8.580;2023-07-20T14:15:05;2.63;;;2.43;;
11245;SDS011;59870;50.106;8.580;2023-07-20T14:17:33;2.07;;;1.87;;
11245;SDS011;59870;50.106;8.580;2023-07-20T14:20:02;5.20;;;1.70;;
11245;SDS011;59870;50.106;8.580;2023-07-20T14:22:48;2.07;;;1.87;;
11245;SDS011;59870;50.106;8.580;2023-07-20T14:25:17;2.50;;;2.30;;
11245;SDS011;59870;50.106;8.580;2023-07-20T14:27:46;2.17;;;2.07;;
11245;SDS011;59870;50.106;8.580;2023-07-20T14:30:13;2.57;;;1.77;;
11245;SDS011;59870;50.106;8.580;2023-07-20T14:32:41;1.90;;;1.80;;
11245;SDS011;59870;50.106;8.580;2023-07-20T14:35:08;2.23;;;2.00;;
11245;SDS011;59870;50.106;8.580;2023-07-20T14:37:37;2.30;;;2.10;;
11245;SDS011;59870;50.106;8.580;2023-07-20T14:40:05;2.93;;;2.20;;
11245;SDS011;59870;50.106;8.580;2023-07-20T14:42:34;2.37;;;2.27;;
11245;SDS011;59870;50.106;8.580;2023-07-20T14:45:02;5.60;;;2.42;;
11245;SDS011;59870;50.106;8.580;2023-07-20T14:47:30;2.23;;;2.10;;
11245;SDS011;59870;50.106;8.580;2023-07-20T14:49:59;2.50;;;2.30;;
11245;SDS011;59870;50.106;8.580;2023-07-20T14:52:30;2.35;;;2.25;;
11245;SDS011;59870;50.106;8.580;2023-07-20T14:54:57;2.20;;;2.00;;
11245;SDS011;59870;50.106;8.580;2023-07-20T14:57:25;2.33;;;2.20;;
11245;SDS011;59870;50.106;8.580;2023-07-20T14:59:52;2.60;;;2.40;;
11245;SDS011;59870;50.106;8.580;2023-07-20T15:02:20;2.43;;;2.10;;
11245;SDS011;59870;50.106;8.580;2023-07-20T15:04:48;5.47;;;2.47;;
11245;SDS011;59870;50.106;8.580;2023-07-20T15:07:17;2.37;;;2.27;;
11245;SDS011;59870;50.106;8.580;2023-07-20T15:09:45;3.07;;;2.13;;
11245;SDS011;59870;50.106;8.580;2023-07-20T15:12:13;2.27;;;2.07;;
11245;SDS011;59870;50.106;8.580;2023-07-20T15:14:41;2.30;;;2.20;;
11245;SDS011;59870;50.106;8.580;2023-07-20T15:17:10;2.93;;;2.37;;